Time;durP1;ratioP1;P1;durP2;ratioP2;P2;SDS_P1;SDS_P2;PMS_P1;PMS_P2;Temp;Humidity;BMP_temperature;BMP_pressure;BME280_temperature;BME280_humidity;BME280_pressure;Samples;Min_cycle;Max_cycle;Signal;HPM_P1;HPM_P2
2022/11/25 00:01:18;;;;;;;5.32;3.85;;;;;;;4.08;80.25;93077.63;5052662;28;20119;-34
2022/11/25 00:03:44;;;;;;;5.20;4.70;;;;;;;4.11;80.05;93079.31;5070121;28;20039;-34
2022/11/25 00:06:20;;;;;;;4.97;3.72;;;;;;;4.07;80.29;93078.84;5070277;28;20028;-34
2022/11/25 00:08:48;;;;;;;7.03;4.03;;;;;;;4.06;80.51;93077.41;5063802;28;20467;-34
2022/11/25 00:11:14;;;;;;;4.88;3.97;;;;;;;4.05;80.53;93084.09;5049868;28;20025;-34
2022/11/25 00:13:40;;;;;;;6.78;3.97;;;;;;;4.04;80.58;93082.63;5049615;28;20049;-34
2022/11/25 00:16:08;;;;;;;5.18;3.58;;;;;;;4.00;80.54;93087.66;5050078;28;20029;-34
2022/11/25 00:18:34;;;;;;;6.07;3.75;;;;;;;3.96;80.69;93084.47;5049912;28;20024;-33
2022/11/25 00:21:07;;;;;;;4.97;3.80;;;;;;;3.98;81.15;93084.69;5049860;28;20425;-34
2022/11/25 00:23:34;;;;;;;4.28;3.42;;;;;;;3.94;80.92;93083.50;5049752;28;20025;-34
2022/11/25 00:26:13;;;;;;;4.75;3.70;;;;;;;3.96;81.00;93089.94;5049481;28;20501;-34
2022/11/25 00:28:40;;;;;;;6.93;3.33;;;;;;;3.84;80.55;93066.72;5050079;28;20036;-33
2022/11/25 00:31:12;;;;;;;4.50;3.50;;;;;;;4.02;80.29;93087.13;5034069;28;20040;-34
2022/11/25 00:33:38;;;;;;;5.53;3.50;;;;;;;4.03;80.13;93088.63;5053551;28;20418;-33
2022/11/25 00:36:05;;;;;;;9.75;3.72;;;;;;;4.00;80.38;93093.13;5053544;28;20033;-34
2022/11/25 00:38:30;;;;;;;4.47;3.35;;;;;;;4.00;80.09;93093.13;5053439;28;20024;-34
2022/11/25 00:46:24;;;;;;;5.43;3.40;;;;;;;3.99;80.52;93091.63;5056845;28;20411;-34
2022/11/25 00:48:49;;;;;;;5.25;3.90;;;;;;;3.96;80.43;93105.59;5073359;28;20024;-34
2022/11/25 00:51:15;;;;;;;5.18;3.88;;;;;;;3.97;80.67;93101.59;5073549;28;20469;-34
2022/11/25 00:53:40;;;;;;;4.75;3.65;;;;;;;3.93;80.88;93106.59;5073364;28;20043;-34
2022/11/25 00:56:11;;;;;;;4.78;3.80;;;;;;;3.92;80.87;93111.31;5073221;28;20020;-34
2022/11/25 00:58:38;;;;;;;4.85;3.63;;;;;;;3.88;81.09;93104.69;5061170;28;20050;-34
2022/11/25 01:01:03;;;;;;;9.07;5.82;;;;;;;3.92;81.16;93110.59;5053399;28;20417;-34
2022/11/25 01:03:29;;;;;;;24.33;11.07;;;;;;;3.91;81.46;93109.84;5052991;28;20021;-34
2022/11/25 01:05:54;;;;;;;22.38;11.40;;;;;;;3.87;81.65;93108.66;5053135;28;20100;-34
2022/11/25 01:08:19;;;;;;;39.72;18.92;;;;;;;3.86;81.90;93105.19;5055836;28;20036;-34
2022/11/25 01:10:45;;;;;;;31.20;14.95;;;;;;;3.85;81.84;93107.16;5073277;28;20150;-34
2022/11/25 01:13:10;;;;;;;7.47;5.07;;;;;;;3.87;81.59;93109.41;5072810;28;20048;-34
2022/11/25 01:15:36;;;;;;;17.10;9.57;;;;;;;3.82;81.61;93102.00;5072984;28;20444;-34
2022/11/25 01:18:02;;;;;;;8.75;6.35;;;;;;;3.80;81.64;93093.59;5072885;28;20028;-34
2022/11/25 01:20:27;;;;;;;10.75;6.80;;;;;;;3.85;81.46;93109.19;5073033;28;20036;-34
2022/11/25 01:22:53;;;;;;;14.63;6.82;;;;;;;3.92;81.21;93107.88;5072792;28;20062;-34
2022/11/25 01:25:18;;;;;;;12.27;8.20;;;;;;;3.89;81.14;93109.63;5072629;28;20028;-34
2022/11/25 01:27:43;;;;;;;11.43;6.80;;;;;;;3.83;81.27;93112.41;5072627;28;20029;-34
2022/11/25 01:30:09;;;;;;;5.28;4.13;;;;;;;3.87;80.99;93103.19;5060691;28;20021;-34
2022/11/25 01:32:35;;;;;;;8.00;4.00;;;;;;;3.88;80.65;93104.69;5052538;28;20481;-34
2022/11/25 01:35:00;;;;;;;15.90;8.23;;;;;;;3.84;81.10;93102.22;5052673;28;20025;-34
2022/11/25 01:37:26;;;;;;;10.02;5.50;;;;;;;3.90;81.04;93113.81;5052476;28;20025;-34
2022/11/25 01:39:51;;;;;;;13.73;6.97;;;;;;;3.88;81.00;93110.16;5052395;28;20021;-34
2022/11/25 01:42:18;;;;;;;14.15;8.00;;;;;;;3.88;81.38;93108.13;5052372;28;20095;-34
2022/11/25 01:44:43;;;;;;;9.25;6.40;;;;;;;3.91;81.13;93112.59;5034814;28;20021;-34
2022/11/25 01:47:15;;;;;;;13.82;8.55;;;;;;;3.84;81.12;93100.25;5052274;28;20072;-34
2022/11/25 01:50:00;;;;;;;18.65;9.35;;;;;;;3.95;80.97;93121.22;5052121;28;20029;-33
2022/11/25 01:52:38;;;;;;;27.60;12.77;;;;;;;3.98;80.91;93117.47;5034491;28;20028;-34
2022/11/25 01:55:07;;;;;;;26.42;12.23;;;;;;;3.90;81.40;93119.28;5047652;28;20039;-34
2022/11/25 01:57:38;;;;;;;7.35;5.40;;;;;;;3.91;81.85;93123.50;5072252;28;20029;-34
2022/11/25 02:00:05;;;;;;;7.90;5.20;;;;;;;3.96;81.90;93117.25;5054285;28;20036;-34
2022/11/25 02:02:30;;;;;;;7.50;5.30;;;;;;;3.95;81.81;93115.75;5054080;28;20040;-34
2022/11/25 02:04:57;;;;;;;8.32;5.13;;;;;;;3.89;82.21;93122.53;5054204;28;20028;-34
2022/11/25 02:07:31;;;;;;;16.85;7.88;;;;;;;3.89;82.12;93125.28;5054363;28;20028;-34
2022/11/25 02:09:57;;;;;;;7.90;5.88;;;;;;;3.89;82.05;93128.00;5034395;28;20040;-34
2022/11/25 02:12:23;;;;;;;45.63;18.67;;;;;;;3.86;82.55;93118.84;5030762;28;20087;-34
2022/11/25 02:14:50;;;;;;;14.75;8.13;;;;;;;3.86;82.74;93113.38;5032111;28;20406;-34
2022/11/25 02:17:15;;;;;;;14.73;8.88;;;;;;;3.90;82.11;93108.38;5031915;28;20034;-34
2022/11/25 02:20:03;;;;;;;14.32;8.48;;;;;;;3.98;81.74;93114.00;5031825;28;20043;-34
2022/11/25 02:22:31;;;;;;;6.80;4.75;;;;;;;3.96;81.52;93117.25;5031773;28;20033;-34
2022/11/25 02:25:07;;;;;;;21.55;8.85;;;;;;;3.87;82.28;93114.88;5033605;28;20111;-34
2022/11/25 02:27:32;;;;;;;11.70;7.53;;;;;;;3.87;82.28;93109.41;5050290;28;20508;-34
2022/11/25 02:29:58;;;;;;;37.17;17.00;;;;;;;3.84;82.65;93096.78;5051620;28;20025;-34
2022/11/25 02:32:23;;;;;;;24.15;10.20;;;;;;;3.86;82.76;93088.81;5051422;28;20410;-34
2022/11/25 02:34:49;;;;;;;11.07;6.90;;;;;;;3.92;82.15;93094.94;5051301;28;20021;-34
2022/11/25 02:37:16;;;;;;;13.90;7.20;;;;;;;3.89;81.91;93090.50;5051730;28;20037;-34
2022/11/25 02:39:42;;;;;;;9.73;5.78;;;;;;;3.85;82.31;93098.25;5051165;28;20425;-34
2022/11/25 02:42:08;;;;;;;7.65;5.32;;;;;;;3.79;82.39;93081.19;5051272;28;20029;-34
2022/11/25 02:44:33;;;;;;;10.00;6.00;;;;;;;3.84;82.33;93086.59;5050280;28;20032;-34
2022/11/25 02:46:59;;;;;;;6.22;5.50;;;;;;;3.79;82.47;93081.91;5043158;28;20083;-34
2022/11/25 02:49:24;;;;;;;10.43;5.80;;;;;;;3.78;82.26;93085.19;5031469;28;20468;-34
2022/11/25 02:51:50;;;;;;;10.73;7.63;;;;;;;3.76;82.70;93090.41;5048802;28;20500;-34
2022/11/25 02:54:15;;;;;;;11.27;7.93;;;;;;;3.74;82.80;93093.66;5050796;28;20436;-34
2022/11/25 02:56:41;;;;;;;8.82;5.70;;;;;;;3.72;82.92;93098.16;5050990;28;20104;-34
2022/11/25 02:59:07;;;;;;;8.00;5.43;;;;;;;3.67;83.12;93098.94;5051065;28;20614;-34
2022/11/25 03:01:34;;;;;;;9.15;5.85;;;;;;;3.65;82.83;93101.44;5050878;28;20109;-34
2022/11/25 03:03:59;;;;;;;12.18;7.38;;;;;;;3.62;82.82;93094.28;5051127;28;20032;-34
2022/11/25 03:06:25;;;;;;;6.82;6.07;;;;;;;3.67;82.96;93098.94;5050843;28;20021;-34
2022/11/25 03:08:50;;;;;;;9.43;7.13;;;;;;;3.60;83.28;93102.25;5044001;28;20052;-34
2022/11/25 03:11:16;;;;;;;7.68;6.15;;;;;;;3.64;83.26;93105.41;5030910;28;20693;-34
2022/11/25 03:13:41;;;;;;;12.25;7.30;;;;;;;3.68;83.43;93103.16;5046719;28;20127;-34
2022/11/25 03:16:07;;;;;;;8.52;6.50;;;;;;;3.60;82.99;93091.31;5050906;28;20465;-34
2022/11/25 03:18:32;;;;;;;8.23;6.00;;;;;;;3.70;83.08;93108.84;5050559;28;20481;-34
2022/11/25 03:20:58;;;;;;;9.05;5.97;;;;;;;3.68;82.98;93109.34;5050586;28;20033;-34
2022/11/25 03:23:23;;;;;;;8.65;5.80;;;;;;;3.69;82.68;93116.28;5050521;28;20033;-34
2022/11/25 03:25:49;;;;;;;9.52;5.57;;;;;;;3.71;82.80;93121.25;5059609;28;20031;-34
2022/11/25 03:28:14;;;;;;;7.50;5.82;;;;;;;3.72;82.53;93120.00;5070634;28;20480;-34
2022/11/25 03:30:40;;;;;;;6.82;5.63;;;;;;;3.78;82.12;93115.97;5054279;28;20020;-34
2022/11/25 03:33:05;;;;;;;7.13;5.78;;;;;;;3.78;82.45;93120.66;5050315;28;20028;-34
2022/11/25 03:35:31;;;;;;;7.57;5.60;;;;;;;3.80;82.56;93120.91;5032360;28;20033;-34
2022/11/25 03:37:56;;;;;;;6.43;5.47;;;;;;;3.77;82.52;93119.94;5050653;28;20477;-34
2022/11/25 03:40:22;;;;;;;7.30;4.97;;;;;;;3.69;82.60;93123.75;5050457;28;20043;-34
2022/11/25 03:42:47;;;;;;;7.03;5.13;;;;;;;3.67;82.55;93126.25;5050240;28;20487;-34
2022/11/25 03:45:13;;;;;;;4.80;4.07;;;;;;;3.69;82.55;93121.75;5050215;28;20021;-34
2022/11/25 03:47:40;;;;;;;7.10;5.32;;;;;;;3.64;82.73;93130.72;5064197;28;20032;-34
2022/11/25 03:50:06;;;;;;;7.07;5.20;;;;;;;3.51;83.39;93113.53;5070412;28;20028;-34
2022/11/25 03:52:32;;;;;;;6.65;4.88;;;;;;;3.56;83.17;93134.53;5052101;28;20506;-33
2022/11/25 03:54:57;;;;;;;7.93;5.05;;;;;;;3.50;83.59;93140.06;5070013;28;20055;-34
2022/11/25 03:57:22;;;;;;;8.57;5.53;;;;;;;3.54;83.63;93139.78;5070274;28;20028;-34
2022/11/25 03:59:48;;;;;;;8.95;5.60;;;;;;;3.53;83.34;93141.75;5070348;28;20500;-34
2022/11/25 04:02:13;;;;;;;6.47;4.97;;;;;;;3.54;83.46;93143.25;5070021;28;20024;-34
2022/11/25 04:04:39;;;;;;;10.65;5.47;;;;;;;3.54;83.64;93147.97;5070098;28;20036;-34
2022/11/25 04:07:04;;;;;;;7.07;5.28;;;;;;;3.56;82.96;93153.66;5073617;28;20031;-34
2022/11/25 04:09:30;;;;;;;8.85;5.18;;;;;;;3.61;83.13;93156.34;5061753;28;20024;-34
2022/11/25 04:14:39;;;;;;;5.85;5.22;;;;;;;3.51;83.39;93157.19;5054272;28;20124;-34
2022/11/25 04:17:05;;;;;;;8.32;5.30;;;;;;;3.45;83.45;93151.00;5054261;28;20029;-34
2022/11/25 04:19:30;;;;;;;5.50;4.72;;;;;;;3.47;83.05;93148.50;5053886;28;20052;-34
2022/11/25 04:21:58;;;;;;;6.03;4.38;;;;;;;3.54;83.30;93154.16;5054179;28;20060;-34
2022/11/25 04:24:24;;;;;;;5.57;5.00;;;;;;;3.55;82.72;93169.28;5053834;28;20025;-34
2022/11/25 04:26:50;;;;;;;5.82;5.22;;;;;;;3.50;83.05;93164.63;5070940;28;20082;-34
2022/11/25 04:29:15;;;;;;;6.03;4.38;;;;;;;3.51;83.04;93168.09;5073738;28;20020;-34
2022/11/25 04:31:40;;;;;;;7.40;4.97;;;;;;;3.47;83.07;93168.38;5073950;28;20036;-34
2022/11/25 04:34:06;;;;;;;6.13;5.03;;;;;;;3.42;83.42;93182.78;5073613;28;20028;-34
2022/11/25 04:36:31;;;;;;;17.45;9.13;;;;;;;3.37;83.36;93169.19;5073594;28;20035;-34
2022/11/25 04:38:57;;;;;;;16.58;9.00;;;;;;;3.45;82.85;93181.03;5056151;28;20040;-34
2022/11/25 04:41:22;;;;;;;14.68;8.35;;;;;;;3.39;83.37;93178.38;5073407;28;20496;-34
2022/11/25 04:43:48;;;;;;;8.70;5.78;;;;;;;3.40;83.21;93188.00;5060216;28;20029;-34
2022/11/25 04:46:18;;;;;;;8.80;6.15;;;;;;;3.35;83.25;93180.63;5053346;28;20029;-34
2022/11/25 04:48:44;;;;;;;8.43;5.30;;;;;;;3.31;83.25;93193.06;5053720;28;20021;-34
2022/11/25 04:51:09;;;;;;;7.20;5.20;;;;;;;3.30;83.63;93191.56;5053382;28;20463;-34
2022/11/25 04:53:35;;;;;;;10.30;6.15;;;;;;;3.30;83.59;93194.31;5053497;28;20025;-34
2022/11/25 04:56:00;;;;;;;12.70;7.90;;;;;;;3.27;83.57;93206.25;5053464;28;20394;-34
2022/11/25 05:01:09;;;;;;;10.32;6.32;;;;;;;3.17;83.14;93205.06;5053522;28;20512;-34
2022/11/25 05:03:35;;;;;;;6.38;5.60;;;;;;;3.13;83.34;93207.34;5053284;28;20021;-34
2022/11/25 05:06:05;;;;;;;13.38;7.15;;;;;;;2.96;83.23;93204.72;5053420;28;20496;-34
2022/11/25 05:08:31;;;;;;;16.42;10.00;;;;;;;2.94;83.49;93210.69;5057316;28;20028;-34
2022/11/25 05:10:58;;;;;;;10.73;7.90;;;;;;;2.88;83.66;93220.16;5073015;28;20028;-34
2022/11/25 05:13:23;;;;;;;11.13;7.30;;;;;;;2.85;83.65;93218.41;5072763;28;20052;-33
2022/11/25 05:15:49;;;;;;;11.38;7.97;;;;;;;2.81;83.82;93228.84;5072719;28;20024;-34
2022/11/25 05:18:14;;;;;;;17.25;11.48;;;;;;;2.81;83.90;93232.31;5072707;28;20480;-34
2022/11/25 05:20:40;;;;;;;18.38;10.55;;;;;;;2.58;84.50;93232.94;5072797;28;20020;-33
2022/11/25 05:23:05;;;;;;;15.52;9.90;;;;;;;2.35;85.54;93235.00;5072865;28;20029;-33
2022/11/25 05:25:31;;;;;;;11.25;8.05;;;;;;;2.26;85.61;93238.75;5072676;28;20024;-33
2022/11/25 05:27:56;;;;;;;18.15;11.43;;;;;;;2.19;86.76;93239.25;5072768;28;20397;-33
2022/11/25 05:30:22;;;;;;;13.05;10.38;;;;;;;2.19;86.63;93239.25;5058743;28;20547;-34
2022/11/25 05:32:47;;;;;;;11.77;8.13;;;;;;;2.21;86.27;93252.38;5052718;28;20032;-34
2022/11/25 05:35:12;;;;;;;9.98;7.18;;;;;;;2.15;87.00;93255.13;5052366;28;20029;-34
2022/11/25 05:37:38;;;;;;;8.00;6.05;;;;;;;2.14;87.00;93266.50;5052735;28;20025;-34
2022/11/25 05:40:04;;;;;;;11.20;7.47;;;;;;;2.10;87.69;93264.03;5065754;28;20394;-34
2022/11/25 05:42:30;;;;;;;10.77;7.90;;;;;;;2.08;88.01;93261.06;5072584;28;20037;-34
2022/11/25 05:44:55;;;;;;;8.80;6.43;;;;;;;2.27;88.15;93272.19;5072425;28;20017;-34
2022/11/25 05:47:21;;;;;;;11.35;7.50;;;;;;;2.36;88.16;93274.59;5061238;28;20025;-34
2022/11/25 05:49:46;;;;;;;12.10;7.43;;;;;;;2.38;87.96;93276.84;5052531;28;20052;-34
2022/11/25 05:52:11;;;;;;;18.10;9.52;;;;;;;2.49;87.43;93285.00;5052173;28;20397;-34
2022/11/25 05:54:37;;;;;;;24.75;10.95;;;;;;;2.56;87.80;93290.66;5052114;28;20037;-34
2022/11/25 05:57:02;;;;;;;26.95;12.20;;;;;;;2.64;87.03;93291.59;5052327;28;20104;-34
2022/11/25 05:59:28;;;;;;;12.07;7.68;;;;;;;2.67;86.73;93290.63;5052281;28;20029;-34
2022/11/25 06:01:53;;;;;;;16.88;8.20;;;;;;;2.70;86.18;93305.22;5052337;28;20416;-34
2022/11/25 06:04:19;;;;;;;21.45;11.43;;;;;;;2.73;85.68;93301.50;5051968;28;20047;-34
2022/11/25 06:06:44;;;;;;;28.17;15.20;;;;;;;2.73;86.00;93301.50;5051933;28;20028;-34
2022/11/25 06:09:10;;;;;;;29.20;12.57;;;;;;;2.78;86.52;93304.19;5051878;28;20055;-34
2022/11/25 06:11:35;;;;;;;32.97;13.90;;;;;;;2.86;86.48;93313.34;5051816;28;20052;-34
2022/11/25 06:14:01;;;;;;;32.53;13.88;;;;;;;2.87;85.95;93314.81;5051827;28;20430;-34
2022/11/25 06:16:27;;;;;;;16.95;9.90;;;;;;;2.92;85.49;93318.78;5051965;28;20025;-34
2022/11/25 06:18:52;;;;;;;8.38;5.53;;;;;;;2.81;85.90;93302.47;5052012;28;20120;-34
2022/11/25 06:21:18;;;;;;;23.52;9.52;;;;;;;3.00;85.43;93325.94;5051628;28;20414;-34
2022/11/25 06:23:44;;;;;;;48.78;17.17;;;;;;;3.03;84.87;93324.91;5051841;28;20033;-34
2022/11/25 06:26:20;;;;;;;14.93;7.97;;;;;;;3.06;84.63;93314.97;5063563;28;20036;-33
2022/11/25 06:28:47;;;;;;;11.13;7.65;;;;;;;2.93;84.64;93299.19;5070068;28;20024;-34
2022/11/25 06:31:14;;;;;;;23.95;9.68;;;;;;;3.12;84.64;93331.34;5051488;28;20029;-33
2022/11/25 06:33:41;;;;;;;11.88;6.43;;;;;;;3.10;84.39;93323.63;5051319;28;20509;-34
2022/11/25 06:36:08;;;;;;;22.95;8.75;;;;;;;3.07;84.66;93341.03;5062828;28;20094;-34
2022/11/25 06:38:34;;;;;;;20.02;9.95;;;;;;;3.03;85.02;93335.09;5071301;28;20496;-34
2022/11/25 06:41:01;;;;;;;8.75;5.82;;;;;;;3.10;85.03;93342.72;5071346;28;20029;-34
2022/11/25 06:43:26;;;;;;;16.77;7.55;;;;;;;3.12;84.93;93347.69;5071155;28;20035;-33
2022/11/25 06:46:36;;;;;;;10.73;6.72;;;;;;;3.15;84.65;93346.69;5065266;27;1410051;-34
2022/11/25 06:49:01;;;;;;;10.50;7.32;;;;;;;3.19;84.66;93353.34;5088001;28;20039;-34
2022/11/25 06:51:27;;;;;;;13.55;8.43;;;;;;;3.25;84.52;93356.06;5087840;28;20052;-34
2022/11/25 06:53:52;;;;;;;9.73;6.03;;;;;;;2.97;84.58;93305.09;5087631;28;20105;-34
2022/11/25 06:56:21;;;;;;;6.32;4.63;;;;;;;3.53;83.54;93354.66;5087587;28;20031;-34
2022/11/25 06:58:47;;;;;;;4.70;3.90;;;;;;;3.84;82.60;93359.66;5087501;28;20028;-34
2022/11/25 07:01:23;;;;;;;6.63;3.78;;;;;;;4.09;81.03;93357.75;5087855;28;20032;-34
2022/11/25 07:03:51;;;;;;;5.45;3.72;;;;;;;4.28;80.55;93358.59;5087614;28;20032;-34
2022/11/25 07:06:18;;;;;;;5.13;3.70;;;;;;;4.44;79.69;93365.16;5087744;28;20037;-34
2022/11/25 07:08:44;;;;;;;3.97;3.00;;;;;;;4.52;79.09;93371.53;5087280;28;20024;-34
2022/11/25 07:11:31;;;;;;;4.15;3.75;;;;;;;4.51;78.44;93370.03;5087380;28;20024;-34
2022/11/25 07:13:58;;;;;;;6.35;4.70;;;;;;;4.54;78.82;93372.50;5087257;28;20028;-34
2022/11/25 07:16:24;;;;;;;5.70;4.20;;;;;;;4.53;78.25;93375.75;5087203;28;20078;-34
2022/11/25 07:18:50;;;;;;;5.68;4.15;;;;;;;4.48;78.62;93371.81;5087236;28;20024;-34
2022/11/25 07:21:21;;;;;;;4.32;3.85;;;;;;;4.71;78.27;93377.06;5087107;28;20024;-34
2022/11/25 07:23:46;;;;;;;4.20;3.53;;;;;;;5.03;77.78;93375.22;5087135;28;20028;-34
2022/11/25 07:26:18;;;;;;;5.60;3.60;;;;;;;6.51;73.02;93379.16;5086929;28;20024;-34
2022/11/25 07:28:43;;;;;;;5.97;3.53;;;;;;;6.92;69.16;93371.22;5087197;28;20024;-34
2022/11/25 07:31:23;;;;;;;3.63;2.60;;;;;;;6.85;68.85;93383.56;5087130;28;20399;-34
2022/11/25 07:33:58;;;;;;;3.33;2.97;;;;;;;6.78;68.83;93386.19;5087197;28;20055;-34
2022/11/25 07:36:23;;;;;;;3.05;2.75;;;;;;;6.67;68.08;93373.41;5086823;28;20035;-34
2022/11/25 07:38:49;;;;;;;3.53;3.15;;;;;;;6.79;68.22;93379.44;5086804;28;20032;-34
2022/11/25 07:41:20;;;;;;;4.88;2.80;;;;;;;6.88;67.60;93390.75;5086753;28;20042;-34
2022/11/25 07:43:56;;;;;;;5.18;3.15;;;;;;;6.84;67.67;93387.56;5086594;28;20158;-35
2022/11/25 07:46:24;;;;;;;4.68;2.83;;;;;;;6.85;68.06;93385.56;5100620;28;20047;-34
2022/11/25 07:48:51;;;;;;;4.45;3.08;;;;;;;6.93;67.70;93391.19;5107221;28;20094;-34
2022/11/25 07:51:19;;;;;;;4.75;3.47;;;;;;;6.95;68.27;93391.38;5106786;28;20509;-34
2022/11/25 07:53:45;;;;;;;4.80;2.92;;;;;;;7.06;67.03;93380.91;5106665;28;20035;-35
2022/11/25 07:56:12;;;;;;;3.30;2.80;;;;;;;7.16;66.59;93395.72;5103384;28;20020;-34
2022/11/25 07:58:38;;;;;;;4.03;3.10;;;;;;;7.15;66.33;93398.97;5093097;28;20495;-34
2022/11/25 08:01:05;;;;;;;4.78;3.90;;;;;;;7.14;66.11;93401.00;5093086;28;20031;-34
2022/11/25 08:03:34;;;;;;;9.13;3.80;;;;;;;7.29;65.48;93403.97;5093213;28;20024;-34
2022/11/25 08:06:01;;;;;;;3.92;3.53;;;;;;;7.50;66.99;93413.03;5093059;28;20020;-34
2022/11/25 08:08:27;;;;;;;3.58;2.67;;;;;;;8.93;62.28;93402.06;5092837;28;20035;-34
2022/11/25 08:10:53;;;;;;;3.20;2.47;;;;;;;10.64;56.15;93405.47;5092940;28;20032;-34
2022/11/25 08:13:18;;;;;;;3.33;1.90;;;;;;;12.21;52.42;93410.63;5093180;28;20499;-34
2022/11/25 08:15:43;;;;;;;3.20;2.25;;;;;;;12.68;48.95;93395.94;5092668;28;20711;-35
2022/11/25 08:18:09;;;;;;;4.63;1.95;;;;;;;13.43;47.58;93409.25;5093067;28;20499;-35
2022/11/25 08:20:35;;;;;;;10.43;2.72;;;;;;;14.76;43.75;93394.97;5092952;28;20400;-35
2022/11/25 08:23:00;;;;;;;5.22;3.45;;;;;;;15.75;42.04;93405.25;5092964;28;20054;-35
2022/11/25 08:25:26;;;;;;;2.38;2.17;;;;;;;16.24;38.98;93404.00;5092103;28;20097;-35
2022/11/25 08:27:51;;;;;;;5.68;4.50;;;;;;;17.11;38.59;93419.25;5092621;28;20027;-35
2022/11/25 08:30:17;;;;;;;5.32;2.00;;;;;;;17.04;37.63;93420.91;5092398;28;20230;-35
2022/11/25 08:32:42;;;;;;;2.10;1.75;;;;;;;17.26;36.15;93416.13;5074785;28;20107;-35
2022/11/25 08:35:08;;;;;;;2.42;2.22;;;;;;;17.48;35.55;93422.50;5092461;28;20476;-35
2022/11/25 08:37:33;;;;;;;1.70;1.60;;;;;;;17.22;35.49;93432.56;5092317;28;20074;-35
2022/11/25 08:39:59;;;;;;;1.98;1.70;;;;;;;17.32;35.44;93417.28;5092405;28;20024;-35
2022/11/25 08:42:24;;;;;;;2.35;1.90;;;;;;;17.34;34.38;93439.75;5092562;28;20448;-35
2022/11/25 08:44:54;;;;;;;3.40;2.00;;;;;;;17.93;34.26;93426.97;5091973;28;20703;-35
2022/11/25 08:47:20;;;;;;;2.38;1.92;;;;;;;18.10;33.83;93421.13;5092109;28;20507;-35
2022/11/25 08:49:50;;;;;;;2.10;1.90;;;;;;;18.41;33.69;93430.13;5092335;28;20380;-35
2022/11/25 08:52:15;;;;;;;2.05;1.48;;;;;;;18.42;33.51;93428.06;5091998;28;20028;-35
2022/11/25 08:54:41;;;;;;;2.40;2.20;;;;;;;19.14;32.09;93415.94;5092374;28;20024;-35
2022/11/25 08:57:06;;;;;;;3.10;1.95;;;;;;;19.79;30.57;93419.88;5092241;28;20032;-35
2022/11/25 08:59:32;;;;;;;4.43;2.42;;;;;;;19.97;29.79;93420.94;5091884;28;20508;-35
2022/11/25 09:01:57;;;;;;;2.95;2.63;;;;;;;20.14;29.72;93438.09;5091963;28;20031;-35
2022/11/25 09:04:23;;;;;;;2.25;2.05;;;;;;;19.96;30.65;93428.63;5091733;28;20027;-35
2022/11/25 09:06:48;;;;;;;2.70;2.45;;;;;;;20.68;29.88;93428.59;5092137;28;20099;-36
2022/11/25 09:09:14;;;;;;;2.80;2.45;;;;;;;20.72;28.88;93418.31;5090619;28;20553;-35
2022/11/25 09:11:41;;;;;;;3.92;1.80;;;;;;;20.85;29.31;93426.06;5091707;28;20027;-35
2022/11/25 09:14:06;;;;;;;2.85;2.10;;;;;;;20.96;28.84;93433.69;5091606;28;20084;-35
2022/11/25 09:16:32;;;;;;;1.55;1.35;;;;;;;21.37;27.35;93435.94;5091559;28;20032;-35
2022/11/25 09:18:58;;;;;;;2.35;1.85;;;;;;;20.32;28.77;93430.78;5091930;28;20103;-35
2022/11/25 09:21:24;;;;;;;3.22;1.63;;;;;;;20.45;28.60;93420.97;5091728;28;20059;-35
2022/11/25 09:23:51;;;;;;;5.85;5.00;;;;;;;20.85;27.77;93412.03;5091489;28;20221;-35
2022/11/25 09:26:29;;;;;;;4.50;2.75;;;;;;;20.96;27.55;93427.38;5090965;28;20030;-35
2022/11/25 09:28:55;;;;;;;2.80;1.88;;;;;;;21.19;27.54;93412.47;5091369;28;20035;-35
2022/11/25 09:31:21;;;;;;;2.53;2.20;;;;;;;21.21;27.32;93418.19;5091688;28;20024;-35
2022/11/25 09:33:47;;;;;;;1.92;1.70;;;;;;;20.89;27.84;93406.66;5091560;28;20024;-35
2022/11/25 09:36:14;;;;;;;4.10;1.80;;;;;;;20.65;27.69;93404.56;5091407;28;20573;-35
2022/11/25 09:38:42;;;;;;;2.55;2.13;;;;;;;20.26;28.91;93407.25;5091530;28;20032;-35
2022/11/25 09:47:29;;;;;;;2.40;2.15;;;;;;;20.81;28.65;93417.41;5091312;28;20070;-35
2022/11/25 09:50:06;;;;;;;3.85;2.97;;;;;;;20.69;27.88;93410.41;5091058;28;20106;-35
2022/11/25 09:52:47;;;;;;;3.10;2.67;;;;;;;19.82;29.49;93415.84;5090981;28;20027;-35
2022/11/25 09:55:16;;;;;;;3.30;3.00;;;;;;;19.28;29.97;93418.84;5073280;28;20031;-35
2022/11/25 09:58:03;;;;;;;3.63;2.67;;;;;;;19.62;29.93;93413.28;5073010;28;20200;-35
2022/11/25 10:00:41;;;;;;;4.13;2.53;;;;;;;18.45;31.51;93398.97;5091086;28;20103;-34
2022/11/25 10:03:36;;;;;;;3.22;2.88;;;;;;;17.41;33.12;93424.16;5072778;28;20016;-35
2022/11/25 10:06:23;;;;;;;3.30;2.97;;;;;;;16.03;35.10;93429.63;5047558;28;20543;-34
2022/11/25 10:08:55;;;;;;;3.20;2.90;;;;;;;15.77;36.58;93431.22;5072832;28;20031;-34
2022/11/25 10:11:24;;;;;;;5.32;3.05;;;;;;;16.58;35.62;93423.19;5072736;28;20032;-35
2022/11/25 10:14:11;;;;;;;4.88;3.85;;;;;;;16.36;35.35;93424.34;5090895;28;20028;-34
2022/11/25 10:16:36;;;;;;;4.05;3.33;;;;;;;15.29;37.59;93424.03;5090769;28;20024;-35
2022/11/25 10:19:34;;;;;;;3.42;2.88;;;;;;;15.33;36.60;93399.28;5090401;28;20023;-35
2022/11/25 10:22:20;;;;;;;5.65;3.30;;;;;;;14.93;38.56;93419.19;5049327;28;20047;-34
2022/11/25 10:24:47;;;;;;;3.72;3.15;;;;;;;13.84;41.11;93429.22;5070581;28;20025;-34
2022/11/25 10:27:18;;;;;;;4.20;3.80;;;;;;;13.96;40.78;93424.66;5090446;28;20020;-34
2022/11/25 10:29:47;;;;;;;4.18;3.42;;;;;;;13.24;41.54;93375.03;5072289;28;20024;-34
2022/11/25 10:32:22;;;;;;;5.53;3.83;;;;;;;13.21;42.67;93426.81;5090354;28;20016;-34
2022/11/25 10:34:56;;;;;;;5.85;3.78;;;;;;;12.53;43.89;93398.81;5072611;28;20028;-34
2022/11/25 10:37:26;;;;;;;4.20;3.47;;;;;;;12.97;43.01;93419.22;5072698;28;20085;-35
2022/11/25 10:39:52;;;;;;;3.90;3.28;;;;;;;13.84;43.32;93409.78;5090607;28;20073;-34
2022/11/25 10:42:20;;;;;;;3.70;3.20;;;;;;;14.65;40.36;93403.81;5090542;28;20024;-35
2022/11/25 10:44:46;;;;;;;7.05;3.05;;;;;;;15.07;38.18;93409.88;5089916;28;20035;-35
2022/11/25 10:47:33;;;;;;;3.90;3.08;;;;;;;14.16;40.09;93415.16;5090551;28;20020;-34
2022/11/25 10:50:19;;;;;;;3.85;3.20;;;;;;;13.60;41.35;93423.16;5090195;28;20074;-34
2022/11/25 10:53:12;;;;;;;4.80;3.45;;;;;;;12.61;43.89;93414.09;5072214;28;20051;-35
2022/11/25 10:55:38;;;;;;;3.00;2.67;;;;;;;12.08;45.35;93417.09;5061834;28;20040;-34
2022/11/25 10:58:28;;;;;;;3.83;3.38;;;;;;;11.97;45.42;93408.50;5090183;28;20016;-34
2022/11/25 11:01:06;;;;;;;2.80;2.53;;;;;;;12.43;44.08;93406.25;5090243;28;20020;-34
2022/11/25 11:03:32;;;;;;;3.15;2.25;;;;;;;12.92;43.15;93393.22;5089939;28;20024;-34
2022/11/25 11:05:57;;;;;;;4.55;3.47;;;;;;;12.38;44.54;93409.97;5090104;28;20712;-34
2022/11/25 11:08:36;;;;;;;7.32;4.40;;;;;;;12.11;45.21;93407.69;5089886;28;20093;-34
2022/11/25 11:11:19;;;;;;;10.55;7.00;;;;;;;12.10;46.03;93409.00;5090009;28;20476;-34
2022/11/25 11:13:46;;;;;;;5.93;4.50;;;;;;;12.24;45.21;93417.03;5089798;28;20051;-35
2022/11/25 11:16:39;;;;;;;5.28;3.47;;;;;;;12.05;45.72;93421.00;5071900;28;20020;-34
2022/11/25 11:19:05;;;;;;;3.38;3.05;;;;;;;12.63;45.72;93425.34;5086156;28;20064;-35
2022/11/25 11:21:36;;;;;;;5.40;4.18;;;;;;;12.94;44.42;93415.53;5089834;28;20062;-34
2022/11/25 11:24:03;;;;;;;6.88;4.45;;;;;;;12.59;45.32;93427.75;5072248;28;20028;-35
2022/11/25 11:26:31;;;;;;;6.60;4.00;;;;;;;11.77;47.29;93421.28;5071647;28;20492;-35
2022/11/25 11:29:14;;;;;;;5.63;3.87;;;;;;;11.05;47.87;93425.75;5090054;28;20054;-34
2022/11/25 11:31:45;;;;;;;5.75;4.00;;;;;;;10.76;49.04;93418.94;5091030;28;20169;-34
2022/11/25 11:34:33;;;;;;;6.15;3.38;;;;;;;10.30;50.51;93420.84;5075975;28;20103;-34
2022/11/25 11:37:21;;;;;;;9.00;4.35;;;;;;;9.96;52.31;93428.63;5075555;28;20420;-34
2022/11/25 11:40:11;;;;;;;7.90;3.97;;;;;;;9.62;53.49;93428.78;5075422;28;20047;-34
2022/11/25 11:43:01;;;;;;;5.80;3.85;;;;;;;9.56;53.56;93423.44;5075448;28;20089;-34
2022/11/25 11:45:47;;;;;;;9.18;4.50;;;;;;;9.36;53.82;93421.47;5071706;28;20072;-34
2022/11/25 11:48:48;;;;;;;6.80;4.03;;;;;;;9.05;55.22;93419.81;5073158;28;20036;-34
2022/11/25 11:51:40;;;;;;;5.57;3.67;;;;;;;9.11;54.46;93423.91;5064728;28;20037;-34
2022/11/25 11:54:11;;;;;;;5.78;3.10;;;;;;;8.99;54.96;93417.19;5062161;28;20530;-34
2022/11/25 11:56:53;;;;;;;5.40;3.22;;;;;;;9.01;54.59;93419.38;5072073;28;20576;-34
2022/11/25 11:59:53;;;;;;;7.93;3.30;;;;;;;8.92;54.90;93419.88;5072024;28;20473;-34
2022/11/25 12:02:33;;;;;;;6.53;3.10;;;;;;;8.93;55.24;93424.84;5072797;28;20039;-34